sensor_id;sensor_type;location;lat;lon;timestamp;P1;durP1;ratioP1;P2;durP2;ratioP2
25982;SDS011;13773;48.868;10.730;2022-11-15T00:01:38;18.13;;;13.43;;
25982;SDS011;13773;48.868;10.730;2022-11-15T00:04:04;21.23;;;14.43;;
25982;SDS011;13773;48.868;10.730;2022-11-15T00:06:30;16.90;;;14.73;;
25982;SDS011;13773;48.868;10.730;2022-11-15T00:08:59;18.67;;;14.60;;
25982;SDS011;13773;48.868;10.730;2022-11-15T00:11:25;18.57;;;13.80;;
25982;SDS011;13773;48.868;10.730;2022-11-15T00:13:54;18.60;;;14.20;;
25982;SDS011;13773;48.868;10.730;2022-11-15T00:16:20;21.90;;;13.33;;
25982;SDS011;13773;48.868;10.730;2022-11-15T00:18:46;18.03;;;13.80;;
25982;SDS011;13773;48.868;10.730;2022-11-15T00:21:12;15.87;;;12.80;;
25982;SDS011;13773;48.868;10.730;2022-11-15T00:23:39;15.87;;;13.03;;
25982;SDS011;13773;48.868;10.730;2022-11-15T00:26:04;15.57;;;11.90;;
25982;SDS011;13773;48.868;10.730;2022-11-15T00:28:30;15.30;;;12.10;;
25982;SDS011;13773;48.868;10.730;2022-11-15T00:31:00;16.53;;;13.03;;
25982;SDS011;13773;48.868;10.730;2022-11-15T00:33:27;17.20;;;13.30;;
25982;SDS011;13773;48.868;10.730;2022-11-15T00:35:52;17.27;;;12.57;;
25982;SDS011;13773;48.868;10.730;2022-11-15T00:38:18;19.53;;;13.33;;
25982;SDS011;13773;48.868;10.730;2022-11-15T00:40:44;15.20;;;12.07;;
25982;SDS011;13773;48.868;10.730;2022-11-15T00:43:09;13.40;;;11.87;;
25982;SDS011;13773;48.868;10.730;2022-11-15T00:45:35;12.50;;;11.03;;
25982;SDS011;13773;48.868;10.730;2022-11-15T00:48:01;14.50;;;11.70;;
25982;SDS011;13773;48.868;10.730;2022-11-15T00:50:26;12.80;;;11.50;;
25982;SDS011;13773;48.868;10.730;2022-11-15T00:52:52;14.37;;;11.20;;
25982;SDS011;13773;48.868;10.730;2022-11-15T00:55:18;13.60;;;11.30;;
25982;SDS011;13773;48.868;10.730;2022-11-15T00:57:45;11.00;;;9.80;;
25982;SDS011;13773;48.868;10.730;2022-11-15T01:00:12;14.30;;;11.40;;
25982;SDS011;13773;48.868;10.730;2022-11-15T01:02:38;11.63;;;10.30;;
25982;SDS011;13773;48.868;10.730;2022-11-15T01:05:03;12.83;;;10.97;;
25982;SDS011;13773;48.868;10.730;2022-11-15T01:07:30;12.73;;;10.40;;
25982;SDS011;13773;48.868;10.730;2022-11-15T01:09:55;11.40;;;10.07;;
25982;SDS011;13773;48.868;10.730;2022-11-15T01:12:21;12.63;;;10.47;;
25982;SDS011;13773;48.868;10.730;2022-11-15T01:14:47;11.40;;;10.20;;
25982;SDS011;13773;48.868;10.730;2022-11-15T01:17:12;13.07;;;10.33;;
25982;SDS011;13773;48.868;10.730;2022-11-15T01:19:38;11.10;;;10.00;;
25982;SDS011;13773;48.868;10.730;2022-11-15T01:22:04;11.00;;;9.63;;
25982;SDS011;13773;48.868;10.730;2022-11-15T01:24:29;10.70;;;9.13;;
25982;SDS011;13773;48.868;10.730;2022-11-15T01:26:55;10.43;;;8.63;;
25982;SDS011;13773;48.868;10.730;2022-11-15T01:29:21;11.23;;;9.20;;
25982;SDS011;13773;48.868;10.730;2022-11-15T01:31:46;9.70;;;8.53;;
25982;SDS011;13773;48.868;10.730;2022-11-15T01:34:12;11.53;;;9.10;;
25982;SDS011;13773;48.868;10.730;2022-11-15T01:36:38;10.53;;;8.43;;
25982;SDS011;13773;48.868;10.730;2022-11-15T01:39:03;11.03;;;9.13;;
25982;SDS011;13773;48.868;10.730;2022-11-15T01:41:30;8.80;;;7.90;;
25982;SDS011;13773;48.868;10.730;2022-11-15T01:44:30;9.57;;;8.40;;
25982;SDS011;13773;48.868;10.730;2022-11-15T01:46:55;8.83;;;7.93;;
25982;SDS011;13773;48.868;10.730;2022-11-15T01:49:22;9.63;;;8.43;;
25982;SDS011;13773;48.868;10.730;2022-11-15T01:51:49;9.87;;;8.70;;
25982;SDS011;13773;48.868;10.730;2022-11-15T01:54:16;10.13;;;8.67;;
25982;SDS011;13773;48.868;10.730;2022-11-15T01:56:55;10.67;;;9.37;;
25982;SDS011;13773;48.868;10.730;2022-11-15T01:59:25;11.27;;;9.23;;
25982;SDS011;13773;48.868;10.730;2022-11-15T02:01:51;9.90;;;8.90;;
25982;SDS011;13773;48.868;10.730;2022-11-15T02:06:51;12.13;;;9.50;;
25982;SDS011;13773;48.868;10.730;2022-11-15T02:09:17;10.83;;;8.87;;
25982;SDS011;13773;48.868;10.730;2022-11-15T02:11:42;10.40;;;9.17;;
25982;SDS011;13773;48.868;10.730;2022-11-15T02:14:10;11.43;;;8.90;;
25982;SDS011;13773;48.868;10.730;2022-11-15T02:19:51;13.40;;;10.00;;
25982;SDS011;13773;48.868;10.730;2022-11-15T02:27:38;11.97;;;10.67;;
25982;SDS011;13773;48.868;10.730;2022-11-15T02:35:59;14.10;;;10.50;;
25982;SDS011;13773;48.868;10.730;2022-11-15T02:46:33;12.40;;;10.40;;
25982;SDS011;13773;48.868;10.730;2022-11-15T02:49:20;11.77;;;9.77;;
25982;SDS011;13773;48.868;10.730;2022-11-15T02:51:49;13.13;;;10.93;;
25982;SDS011;13773;48.868;10.730;2022-11-15T02:54:28;12.57;;;10.30;;
25982;SDS011;13773;48.868;10.730;2022-11-15T02:56:58;11.83;;;9.93;;
25982;SDS011;13773;48.868;10.730;2022-11-15T02:59:52;12.17;;;10.73;;
25982;SDS011;13773;48.868;10.730;2022-11-15T03:05:43;10.60;;;9.23;;
25982;SDS011;13773;48.868;10.730;2022-11-15T03:11:08;10.33;;;8.70;;
25982;SDS011;13773;48.868;10.730;2022-11-15T03:16:24;10.37;;;8.90;;
25982;SDS011;13773;48.868;10.730;2022-11-15T03:19:13;11.33;;;9.27;;
25982;SDS011;13773;48.868;10.730;2022-11-15T03:21:47;9.77;;;8.77;;
25982;SDS011;13773;48.868;10.730;2022-11-15T03:24:14;11.17;;;9.40;;
25982;SDS011;13773;48.868;10.730;2022-11-15T03:26:43;11.20;;;9.97;;
25982;SDS011;13773;48.868;10.730;2022-11-15T03:29:14;10.53;;;9.13;;
25982;SDS011;13773;48.868;10.730;2022-11-15T03:31:45;11.37;;;10.17;;
25982;SDS011;13773;48.868;10.730;2022-11-15T03:36:56;13.77;;;10.10;;
25982;SDS011;13773;48.868;10.730;2022-11-15T03:39:22;12.37;;;10.27;;
25982;SDS011;13773;48.868;10.730;2022-11-15T03:41:52;11.43;;;9.53;;
25982;SDS011;13773;48.868;10.730;2022-11-15T03:47:36;13.03;;;10.67;;
25982;SDS011;13773;48.868;10.730;2022-11-15T03:50:12;12.27;;;10.40;;
25982;SDS011;13773;48.868;10.730;2022-11-15T03:52:41;13.17;;;10.50;;
25982;SDS011;13773;48.868;10.730;2022-11-15T03:55:11;10.83;;;9.33;;
25982;SDS011;13773;48.868;10.730;2022-11-15T03:57:39;13.00;;;10.30;;
25982;SDS011;13773;48.868;10.730;2022-11-15T04:00:05;10.87;;;9.57;;
25982;SDS011;13773;48.868;10.730;2022-11-15T04:02:31;12.50;;;9.80;;
25982;SDS011;13773;48.868;10.730;2022-11-15T04:04:57;10.60;;;9.50;;
25982;SDS011;13773;48.868;10.730;2022-11-15T04:07:23;11.83;;;10.10;;
25982;SDS011;13773;48.868;10.730;2022-11-15T04:09:48;14.13;;;9.90;;
25982;SDS011;13773;48.868;10.730;2022-11-15T04:12:31;11.00;;;9.90;;
25982;SDS011;13773;48.868;10.730;2022-11-15T04:15:05;10.30;;;9.07;;
25982;SDS011;13773;48.868;10.730;2022-11-15T04:17:46;9.53;;;8.43;;
25982;SDS011;13773;48.868;10.730;2022-11-15T04:20:15;9.30;;;8.33;;
25982;SDS011;13773;48.868;10.730;2022-11-15T04:23:09;9.63;;;8.00;;
25982;SDS011;13773;48.868;10.730;2022-11-15T04:25:55;11.37;;;8.63;;
25982;SDS011;13773;48.868;10.730;2022-11-15T04:28:24;9.27;;;8.13;;
25982;SDS011;13773;48.868;10.730;2022-11-15T04:30:50;8.43;;;7.53;;
25982;SDS011;13773;48.868;10.730;2022-11-15T04:33:15;8.87;;;7.97;;
25982;SDS011;13773;48.868;10.730;2022-11-15T04:35:41;8.70;;;7.80;;
25982;SDS011;13773;48.868;10.730;2022-11-15T04:38:08;11.90;;;8.57;;
25982;SDS011;13773;48.868;10.730;2022-11-15T04:40:35;11.17;;;8.70;;
25982;SDS011;13773;48.868;10.730;2022-11-15T04:43:02;9.13;;;8.07;;
25982;SDS011;13773;48.868;10.730;2022-11-15T04:45:29;9.37;;;8.37;;
25982;SDS011;13773;48.868;10.730;2022-11-15T04:47:55;8.57;;;7.77;;
25982;SDS011;13773;48.868;10.730;2022-11-15T04:50:20;9.57;;;8.30;;
25982;SDS011;13773;48.868;10.730;2022-11-15T04:52:51;10.10;;;8.93;;
25982;SDS011;13773;48.868;10.730;2022-11-15T04:55:18;9.50;;;8.50;;
25982;SDS011;13773;48.868;10.730;2022-11-15T04:57:44;11.33;;;9.10;;
25982;SDS011;13773;48.868;10.730;2022-11-15T05:00:11;10.00;;;8.80;;
25982;SDS011;13773;48.868;10.730;2022-11-15T05:02:38;9.63;;;8.63;;
25982;SDS011;13773;48.868;10.730;2022-11-15T05:05:23;12.27;;;9.17;;
25982;SDS011;13773;48.868;10.730;2022-11-15T05:07:49;9.63;;;8.47;;
25982;SDS011;13773;48.868;10.730;2022-11-15T05:10:15;11.63;;;8.30;;
25982;SDS011;13773;48.868;10.730;2022-11-15T05:12:41;9.37;;;8.07;;
25982;SDS011;13773;48.868;10.730;2022-11-15T05:15:07;9.13;;;8.23;;
25982;SDS011;13773;48.868;10.730;2022-11-15T05:17:32;9.07;;;8.10;;
25982;SDS011;13773;48.868;10.730;2022-11-15T05:19:58;9.50;;;8.07;;
25982;SDS011;13773;48.868;10.730;2022-11-15T05:22:24;8.33;;;7.43;;
25982;SDS011;13773;48.868;10.730;2022-11-15T05:24:50;8.97;;;7.80;;
25982;SDS011;13773;48.868;10.730;2022-11-15T05:27:16;10.50;;;8.43;;
25982;SDS011;13773;48.868;10.730;2022-11-15T05:29:41;9.03;;;8.13;;
25982;SDS011;13773;48.868;10.730;2022-11-15T05:32:07;10.70;;;7.93;;
25982;SDS011;13773;48.868;10.730;2022-11-15T05:34:34;10.17;;;8.50;;
25982;SDS011;13773;48.868;10.730;2022-11-15T05:37:00;9.03;;;8.13;;
25982;SDS011;13773;48.868;10.730;2022-11-15T05:39:25;9.17;;;7.93;;
25982;SDS011;13773;48.868;10.730;2022-11-15T05:41:56;9.53;;;7.87;;
25982;SDS011;13773;48.868;10.730;2022-11-15T05:44:32;10.90;;;8.10;;
25982;SDS011;13773;48.868;10.730;2022-11-15T05:46:59;8.23;;;7.10;;
25982;SDS011;13773;48.868;10.730;2022-11-15T05:49:26;9.33;;;7.67;;
25982;SDS011;13773;48.868;10.730;2022-11-15T05:51:56;9.37;;;7.90;;
25982;SDS011;13773;48.868;10.730;2022-11-15T05:54:23;8.90;;;7.43;;
25982;SDS011;13773;48.868;10.730;2022-11-15T05:56:49;8.03;;;7.20;;
25982;SDS011;13773;48.868;10.730;2022-11-15T05:59:15;9.73;;;7.87;;
25982;SDS011;13773;48.868;10.730;2022-11-15T06:01:42;9.27;;;6.43;;
25982;SDS011;13773;48.868;10.730;2022-11-15T06:04:08;8.13;;;7.10;;
25982;SDS011;13773;48.868;10.730;2022-11-15T06:06:34;9.77;;;7.37;;
25982;SDS011;13773;48.868;10.730;2022-11-15T06:09:00;8.27;;;7.37;;
25982;SDS011;13773;48.868;10.730;2022-11-15T06:11:25;7.93;;;7.07;;
25982;SDS011;13773;48.868;10.730;2022-11-15T06:13:51;10.03;;;7.60;;
25982;SDS011;13773;48.868;10.730;2022-11-15T06:16:17;9.33;;;7.20;;
25982;SDS011;13773;48.868;10.730;2022-11-15T06:18:42;10.17;;;7.20;;
25982;SDS011;13773;48.868;10.730;2022-11-15T06:21:08;7.50;;;6.80;;
25982;SDS011;13773;48.868;10.730;2022-11-15T06:23:34;8.43;;;7.57;;
25982;SDS011;13773;48.868;10.730;2022-11-15T06:26:00;8.03;;;6.77;;
25982;SDS011;13773;48.868;10.730;2022-11-15T06:28:28;8.13;;;7.33;;
25982;SDS011;13773;48.868;10.730;2022-11-15T06:31:04;7.37;;;6.67;;
25982;SDS011;13773;48.868;10.730;2022-11-15T06:33:35;7.77;;;6.77;;
25982;SDS011;13773;48.868;10.730;2022-11-15T06:36:02;8.90;;;7.07;;
25982;SDS011;13773;48.868;10.730;2022-11-15T06:38:29;7.80;;;6.70;;
25982;SDS011;13773;48.868;10.730;2022-11-15T06:41:00;7.40;;;6.17;;
25982;SDS011;13773;48.868;10.730;2022-11-15T06:43:30;7.90;;;6.43;;
25982;SDS011;13773;48.868;10.730;2022-11-15T06:46:00;7.80;;;6.97;;
25982;SDS011;13773;48.868;10.730;2022-11-15T06:48:27;11.70;;;7.90;;
25982;SDS011;13773;48.868;10.730;2022-11-15T06:50:53;9.83;;;8.13;;
25982;SDS011;13773;48.868;10.730;2022-11-15T06:53:21;10.80;;;8.03;;
25982;SDS011;13773;48.868;10.730;2022-11-15T06:55:47;10.53;;;8.87;;
25982;SDS011;13773;48.868;10.730;2022-11-15T06:58:12;10.73;;;9.00;;
25982;SDS011;13773;48.868;10.730;2022-11-15T07:00:38;12.80;;;10.17;;
25982;SDS011;13773;48.868;10.730;2022-11-15T07:03:04;11.30;;;10.03;;
25982;SDS011;13773;48.868;10.730;2022-11-15T07:05:30;11.20;;;10.00;;
25982;SDS011;13773;48.868;10.730;2022-11-15T07:07:56;12.43;;;9.57;;
25982;SDS011;13773;48.868;10.730;2022-11-15T07:10:23;10.47;;;8.93;;
25982;SDS011;13773;48.868;10.730;2022-11-15T07:12:52;12.07;;;9.10;;
25982;SDS011;13773;48.868;10.730;2022-11-15T07:15:20;10.53;;;8.80;;
25982;SDS011;13773;48.868;10.730;2022-11-15T07:17:47;10.87;;;9.03;;
25982;SDS011;13773;48.868;10.730;2022-11-15T07:20:13;9.53;;;8.53;;
25982;SDS011;13773;48.868;10.730;2022-11-15T07:22:40;10.73;;;8.70;;
25982;SDS011;13773;48.868;10.730;2022-11-15T07:25:06;9.93;;;8.80;;
25982;SDS011;13773;48.868;10.730;2022-11-15T07:27:33;10.23;;;9.00;;
25982;SDS011;13773;48.868;10.730;2022-11-15T07:29:58;13.03;;;9.50;;
25982;SDS011;13773;48.868;10.730;2022-11-15T07:32:24;10.73;;;9.57;;
25982;SDS011;13773;48.868;10.730;2022-11-15T07:34:50;12.00;;;9.67;;
25982;SDS011;13773;48.868;10.730;2022-11-15T07:37:16;11.40;;;9.43;;
25982;SDS011;13773;48.868;10.730;2022-11-15T07:39:42;10.43;;;9.33;;
25982;SDS011;13773;48.868;10.730;2022-11-15T07:42:08;11.73;;;9.33;;
25982;SDS011;13773;48.868;10.730;2022-11-15T07:44:52;13.20;;;9.97;;
25982;SDS011;13773;48.868;10.730;2022-11-15T07:47:18;10.60;;;9.17;;
25982;SDS011;13773;48.868;10.730;2022-11-15T07:49:45;13.03;;;9.73;;
25982;SDS011;13773;48.868;10.730;2022-11-15T07:52:11;10.97;;;9.63;;
25982;SDS011;13773;48.868;10.730;2022-11-15T07:54:37;12.10;;;9.90;;
25982;SDS011;13773;48.868;10.730;2022-11-15T07:57:03;12.83;;;10.10;;
25982;SDS011;13773;48.868;10.730;2022-11-15T07:59:30;12.13;;;9.90;;
25982;SDS011;13773;48.868;10.730;2022-11-15T08:01:56;11.10;;;9.23;;
25982;SDS011;13773;48.868;10.730;2022-11-15T08:04:22;12.43;;;10.10;;
25982;SDS011;13773;48.868;10.730;2022-11-15T08:06:48;12.30;;;10.33;;
25982;SDS011;13773;48.868;10.730;2022-11-15T08:09:13;12.60;;;10.77;;
25982;SDS011;13773;48.868;10.730;2022-11-15T08:11:39;11.60;;;9.57;;
25982;SDS011;13773;48.868;10.730;2022-11-15T08:14:05;11.97;;;10.00;;
25982;SDS011;13773;48.868;10.730;2022-11-15T08:16:30;12.47;;;9.37;;
25982;SDS011;13773;48.868;10.730;2022-11-15T08:18:57;10.57;;;9.47;;
25982;SDS011;13773;48.868;10.730;2022-11-15T08:21:23;10.53;;;9.43;;
25982;SDS011;13773;48.868;10.730;2022-11-15T08:23:50;11.40;;;9.10;;
25982;SDS011;13773;48.868;10.730;2022-11-15T08:26:16;11.80;;;10.47;;
25982;SDS011;13773;48.868;10.730;2022-11-15T08:28:43;12.03;;;10.27;;
25982;SDS011;13773;48.868;10.730;2022-11-15T08:31:15;12.53;;;10.57;;
25982;SDS011;13773;48.868;10.730;2022-11-15T08:33:42;12.73;;;10.53;;
25982;SDS011;13773;48.868;10.730;2022-11-15T08:36:11;11.00;;;9.90;;
25982;SDS011;13773;48.868;10.730;2022-11-15T08:38:39;11.90;;;9.93;;
25982;SDS011;13773;48.868;10.730;2022-11-15T08:41:05;12.23;;;10.80;;
25982;SDS011;13773;48.868;10.730;2022-11-15T08:43:31;12.47;;;9.80;;
25982;SDS011;13773;48.868;10.730;2022-11-15T08:45:57;10.17;;;8.57;;
25982;SDS011;13773;48.868;10.730;2022-11-15T08:48:23;9.77;;;8.50;;
25982;SDS011;13773;48.868;10.730;2022-11-15T08:50:52;8.73;;;7.83;;
25982;SDS011;13773;48.868;10.730;2022-11-15T08:53:21;9.33;;;8.43;;
25982;SDS011;13773;48.868;10.730;2022-11-15T08:55:47;9.63;;;8.50;;
25982;SDS011;13773;48.868;10.730;2022-11-15T08:58:13;9.03;;;7.80;;
25982;SDS011;13773;48.868;10.730;2022-11-15T09:00:39;8.93;;;7.80;;
25982;SDS011;13773;48.868;10.730;2022-11-15T09:03:05;8.43;;;7.53;;
25982;SDS011;13773;48.868;10.730;2022-11-15T09:05:32;8.47;;;7.27;;
25982;SDS011;13773;48.868;10.730;2022-11-15T09:08:00;8.43;;;7.07;;
25982;SDS011;13773;48.868;10.730;2022-11-15T09:10:26;8.90;;;7.27;;
25982;SDS011;13773;48.868;10.730;2022-11-15T09:12:51;7.77;;;7.00;;
25982;SDS011;13773;48.868;10.730;2022-11-15T09:15:17;8.00;;;6.53;;
25982;SDS011;13773;48.868;10.730;2022-11-15T09:17:44;8.33;;;6.70;;
25982;SDS011;13773;48.868;10.730;2022-11-15T09:20:10;8.27;;;6.93;;
25982;SDS011;13773;48.868;10.730;2022-11-15T09:22:36;7.70;;;6.90;;
25982;SDS011;13773;48.868;10.730;2022-11-15T09:25:03;7.33;;;6.63;;
25982;SDS011;13773;48.868;10.730;2022-11-15T09:27:29;7.80;;;6.83;;
25982;SDS011;13773;48.868;10.730;2022-11-15T09:29:55;8.50;;;7.17;;
25982;SDS011;13773;48.868;10.730;2022-11-15T09:32:21;7.07;;;6.37;;
25982;SDS011;13773;48.868;10.730;2022-11-15T09:34:48;7.10;;;6.40;;
25982;SDS011;13773;48.868;10.730;2022-11-15T09:37:15;7.13;;;6.43;;
25982;SDS011;13773;48.868;10.730;2022-11-15T09:39:41;7.43;;;6.63;;
25982;SDS011;13773;48.868;10.730;2022-11-15T09:50:08;7.53;;;6.30;;
25982;SDS011;13773;48.868;10.730;2022-11-15T09:52:36;9.13;;;6.50;;
25982;SDS011;13773;48.868;10.730;2022-11-15T09:55:07;6.53;;;5.83;;
25982;SDS011;13773;48.868;10.730;2022-11-15T09:57:57;6.57;;;5.33;;
25982;SDS011;13773;48.868;10.730;2022-11-15T10:01:02;5.77;;;5.00;;
25982;SDS011;13773;48.868;10.730;2022-11-15T10:03:28;6.10;;;5.50;;
25982;SDS011;13773;48.868;10.730;2022-11-15T10:06:00;7.13;;;6.17;;
25982;SDS011;13773;48.868;10.730;2022-11-15T10:11:09;6.20;;;5.70;;
25982;SDS011;13773;48.868;10.730;2022-11-15T10:13:40;8.00;;;6.67;;
25982;SDS011;13773;48.868;10.730;2022-11-15T10:21:51;6.20;;;5.60;;
25982;SDS011;13773;48.868;10.730;2022-11-15T10:24:26;6.10;;;5.50;;
25982;SDS011;13773;48.868;10.730;2022-11-15T10:26:54;6.57;;;5.90;;
25982;SDS011;13773;48.868;10.730;2022-11-15T10:29:21;6.43;;;5.83;;
25982;SDS011;13773;48.868;10.730;2022-11-15T10:31:49;9.10;;;6.50;;
25982;SDS011;13773;48.868;10.730;2022-11-15T10:36:47;8.30;;;7.40;;
25982;SDS011;13773;48.868;10.730;2022-11-15T10:39:22;8.40;;;7.60;;
25982;SDS011;13773;48.868;10.730;2022-11-15T10:41:48;8.93;;;6.93;;
25982;SDS011;13773;48.868;10.730;2022-11-15T10:46:46;7.57;;;6.30;;
25982;SDS011;13773;48.868;10.730;2022-11-15T10:49:28;7.17;;;6.47;;
25982;SDS011;13773;48.868;10.730;2022-11-15T10:52:16;7.20;;;6.03;;
25982;SDS011;13773;48.868;10.730;2022-11-15T10:54:46;6.43;;;5.83;;
25982;SDS011;13773;48.868;10.730;2022-11-15T10:57:14;7.13;;;5.70;;
25982;SDS011;13773;48.868;10.730;2022-11-15T10:59:44;7.37;;;6.13;;
25982;SDS011;13773;48.868;10.730;2022-11-15T11:04:59;5.87;;;4.93;;
25982;SDS011;13773;48.868;10.730;2022-11-15T11:07:27;7.37;;;5.23;;
25982;SDS011;13773;48.868;10.730;2022-11-15T11:10:02;6.90;;;5.80;;
25982;SDS011;13773;48.868;10.730;2022-11-15T11:12:41;6.07;;;5.47;;
25982;SDS011;13773;48.868;10.730;2022-11-15T11:15:14;5.70;;;5.20;;
25982;SDS011;13773;48.868;10.730;2022-11-15T11:20:50;5.80;;;5.20;;
25982;SDS011;13773;48.868;10.730;2022-11-15T11:26:31;7.63;;;4.83;;
25982;SDS011;13773;48.868;10.730;2022-11-15T11:37:39;4.80;;;4.30;;
25982;SDS011;13773;48.868;10.730;2022-11-15T11:53:54;3.60;;;3.30;;
25982;SDS011;13773;48.868;10.730;2022-11-15T11:56:29;3.87;;;3.10;;
25982;SDS011;13773;48.868;10.730;2022-11-15T12:01:43;4.30;;;3.90;;
25982;SDS011;13773;48.868;10.730;2022-11-15T12:06:54;4.90;;;3.67;;
25982;SDS011;13773;48.868;10.730;2022-11-15T12:12:30;3.80;;;3.50;;
25982;SDS011;13773;48.868;10.730;2022-11-15T12:17:28;4.10;;;3.73;;
25982;SDS011;13773;48.868;10.730;2022-11-15T12:19:58;4.43;;;4.03;;
25982;SDS011;13773;48.868;10.730;2022-11-15T12:25:48;4.80;;;4.30;;
25982;SDS011;13773;48.868;10.730;2022-11-15T12:30:46;4.40;;;4.00;;
25982;SDS011;13773;48.868;10.730;2022-11-15T12:33:34;5.07;;;4.57;;
25982;SDS011;13773;48.868;10.730;2022-11-15T12:36:10;4.97;;;4.47;;
25982;SDS011;13773;48.868;10.730;2022-11-15T12:39:00;5.23;;;4.73;;
25982;SDS011;13773;48.868;10.730;2022-11-15T12:41:32;5.70;;;5.10;;
25982;SDS011;13773;48.868;10.730;2022-11-15T12:43:59;4.73;;;4.33;;
25982;SDS011;13773;48.868;10.730;2022-11-15T12:49:54;5.17;;;4.67;;
25982;SDS011;13773;48.868;10.730;2022-11-15T12:52:08;5.00;;;4.37;;
25982;SDS011;13773;48.868;10.730;2022-11-15T13:02:43;3.97;;;3.57;;
25982;SDS011;13773;48.868;10.730;2022-11-15T13:10:47;4.43;;;3.53;;
25982;SDS011;13773;48.868;10.730;2022-11-15T13:21:05;4.13;;;3.70;;
25982;SDS011;13773;48.868;10.730;2022-11-15T13:24:02;5.93;;;3.80;;
25982;SDS011;13773;48.868;10.730;2022-11-15T13:26:28;3.50;;;3.20;;
25982;SDS011;13773;48.868;10.730;2022-11-15T13:28:54;3.93;;;3.50;;
25982;SDS011;13773;48.868;10.730;2022-11-15T13:31:28;4.30;;;3.27;;
25982;SDS011;13773;48.868;10.730;2022-11-15T13:33:56;3.70;;;3.40;;
25982;SDS011;13773;48.868;10.730;2022-11-15T13:36:29;3.90;;;3.17;;
25982;SDS011;13773;48.868;10.730;2022-11-15T13:39:00;3.70;;;3.30;;
25982;SDS011;13773;48.868;10.730;2022-11-15T13:41:29;3.97;;;3.57;;
25982;SDS011;13773;48.868;10.730;2022-11-15T13:43:58;4.00;;;3.57;;
25982;SDS011;13773;48.868;10.730;2022-11-15T13:46:28;4.60;;;4.07;;
25982;SDS011;13773;48.868;10.730;2022-11-15T13:49:05;4.10;;;3.70;;
25982;SDS011;13773;48.868;10.730;2022-11-15T13:57:12;4.17;;;3.73;;
25982;SDS011;13773;48.868;10.730;2022-11-15T14:00:04;5.03;;;4.00;;
25982;SDS011;13773;48.868;10.730;2022-11-15T14:02:35;4.97;;;4.57;;
25982;SDS011;13773;48.868;10.730;2022-11-15T14:05:05;4.37;;;3.97;;
25982;SDS011;13773;48.868;10.730;2022-11-15T14:07:55;5.27;;;3.80;;
25982;SDS011;13773;48.868;10.730;2022-11-15T14:12:59;4.10;;;3.80;;
25982;SDS011;13773;48.868;10.730;2022-11-15T14:15:36;4.37;;;3.97;;
25982;SDS011;13773;48.868;10.730;2022-11-15T14:18:03;4.50;;;4.10;;
25982;SDS011;13773;48.868;10.730;2022-11-15T14:20:31;3.77;;;3.47;;
25982;SDS011;13773;48.868;10.730;2022-11-15T14:23:05;4.40;;;4.00;;
25982;SDS011;13773;48.868;10.730;2022-11-15T14:25:55;6.20;;;4.50;;
25982;SDS011;13773;48.868;10.730;2022-11-15T14:30:48;5.10;;;4.30;;
25982;SDS011;13773;48.868;10.730;2022-11-15T14:33:28;4.27;;;3.87;;
25982;SDS011;13773;48.868;10.730;2022-11-15T14:35:57;5.10;;;4.67;;
25982;SDS011;13773;48.868;10.730;2022-11-15T14:38:27;4.90;;;4.40;;
25982;SDS011;13773;48.868;10.730;2022-11-15T14:40:53;5.30;;;4.47;;
25982;SDS011;13773;48.868;10.730;2022-11-15T14:43:20;6.70;;;4.90;;
25982;SDS011;13773;48.868;10.730;2022-11-15T14:45:46;5.27;;;4.67;;
25982;SDS011;13773;48.868;10.730;2022-11-15T14:48:12;5.30;;;4.80;;
25982;SDS011;13773;48.868;10.730;2022-11-15T14:50:38;5.00;;;4.60;;
25982;SDS011;13773;48.868;10.730;2022-11-15T14:53:04;4.50;;;4.10;;
25982;SDS011;13773;48.868;10.730;2022-11-15T14:55:31;4.93;;;4.47;;
25982;SDS011;13773;48.868;10.730;2022-11-15T14:58:00;5.70;;;4.20;;
25982;SDS011;13773;48.868;10.730;2022-11-15T15:00:28;4.70;;;4.27;;
25982;SDS011;13773;48.868;10.730;2022-11-15T15:02:55;4.93;;;4.17;;
25982;SDS011;13773;48.868;10.730;2022-11-15T15:07:57;4.47;;;4.07;;
25982;SDS011;13773;48.868;10.730;2022-11-15T15:10:33;5.40;;;4.50;;
25982;SDS011;13773;48.868;10.730;2022-11-15T15:13:01;5.70;;;5.10;;
25982;SDS011;13773;48.868;10.730;2022-11-15T15:15:32;7.37;;;5.70;;
25982;SDS011;13773;48.868;10.730;2022-11-15T15:18:03;5.33;;;4.83;;
25982;SDS011;13773;48.868;10.730;2022-11-15T15:20:31;9.47;;;5.63;;
25982;SDS011;13773;48.868;10.730;2022-11-15T15:22:57;6.10;;;5.37;;
25982;SDS011;13773;48.868;10.730;2022-11-15T15:25:25;6.10;;;5.50;;
25982;SDS011;13773;48.868;10.730;2022-11-15T15:27:59;6.93;;;5.80;;
25982;SDS011;13773;48.868;10.730;2022-11-15T15:30:27;6.00;;;5.40;;
25982;SDS011;13773;48.868;10.730;2022-11-15T15:32:54;6.90;;;6.17;;
25982;SDS011;13773;48.868;10.730;2022-11-15T15:35:20;6.50;;;5.80;;
25982;SDS011;13773;48.868;10.730;2022-11-15T15:37:47;11.03;;;8.57;;
25982;SDS011;13773;48.868;10.730;2022-11-15T15:40:21;10.23;;;7.97;;
25982;SDS011;13773;48.868;10.730;2022-11-15T15:42:49;9.90;;;8.47;;
25982;SDS011;13773;48.868;10.730;2022-11-15T15:45:15;13.40;;;9.57;;
25982;SDS011;13773;48.868;10.730;2022-11-15T15:47:42;12.47;;;8.10;;
25982;SDS011;13773;48.868;10.730;2022-11-15T15:50:23;7.50;;;6.70;;
25982;SDS011;13773;48.868;10.730;2022-11-15T15:52:53;7.07;;;6.37;;
25982;SDS011;13773;48.868;10.730;2022-11-15T15:55:20;5.97;;;5.30;;
25982;SDS011;13773;48.868;10.730;2022-11-15T15:57:46;6.23;;;5.03;;
25982;SDS011;13773;48.868;10.730;2022-11-15T16:00:13;5.50;;;5.00;;
25982;SDS011;13773;48.868;10.730;2022-11-15T16:02:39;6.57;;;5.83;;
25982;SDS011;13773;48.868;10.730;2022-11-15T16:05:06;6.37;;;5.23;;
25982;SDS011;13773;48.868;10.730;2022-11-15T16:07:32;6.63;;;5.60;;
25982;SDS011;13773;48.868;10.730;2022-11-15T16:09:58;9.83;;;7.17;;
25982;SDS011;13773;48.868;10.730;2022-11-15T16:12:27;7.70;;;5.33;;
25982;SDS011;13773;48.868;10.730;2022-11-15T16:14:54;6.23;;;5.63;;
25982;SDS011;13773;48.868;10.730;2022-11-15T16:17:21;8.50;;;6.27;;
25982;SDS011;13773;48.868;10.730;2022-11-15T16:19:49;7.13;;;6.43;;
25982;SDS011;13773;48.868;10.730;2022-11-15T16:22:15;6.77;;;5.80;;
25982;SDS011;13773;48.868;10.730;2022-11-15T16:24:41;7.27;;;6.27;;
25982;SDS011;13773;48.868;10.730;2022-11-15T16:27:14;7.20;;;6.50;;
25982;SDS011;13773;48.868;10.730;2022-11-15T16:29:41;8.13;;;6.67;;
25982;SDS011;13773;48.868;10.730;2022-11-15T16:32:06;6.30;;;5.53;;
25982;SDS011;13773;48.868;10.730;2022-11-15T16:34:32;13.70;;;11.47;;
25982;SDS011;13773;48.868;10.730;2022-11-15T16:36:58;9.53;;;8.03;;
25982;SDS011;13773;48.868;10.730;2022-11-15T16:39:24;7.77;;;6.97;;
25982;SDS011;13773;48.868;10.730;2022-11-15T16:41:50;6.90;;;6.20;;
25982;SDS011;13773;48.868;10.730;2022-11-15T16:44:15;7.57;;;6.43;;
25982;SDS011;13773;48.868;10.730;2022-11-15T16:46:41;8.40;;;7.13;;
25982;SDS011;13773;48.868;10.730;2022-11-15T16:49:14;11.53;;;9.37;;
25982;SDS011;13773;48.868;10.730;2022-11-15T16:51:44;11.50;;;7.97;;
25982;SDS011;13773;48.868;10.730;2022-11-15T16:54:10;10.20;;;7.70;;
25982;SDS011;13773;48.868;10.730;2022-11-15T16:56:37;9.57;;;7.93;;
25982;SDS011;13773;48.868;10.730;2022-11-15T16:59:04;9.77;;;8.80;;
25982;SDS011;13773;48.868;10.730;2022-11-15T17:01:31;8.90;;;7.43;;
25982;SDS011;13773;48.868;10.730;2022-11-15T17:04:01;9.67;;;6.70;;